sensor_id;sensor_type;location;lat;lon;timestamp;P1;durP1;ratioP1;P2;durP2;ratioP2
35223;SDS011;21367;51.930;8.112;2023-06-04T00:00:57;6.20;;;1.88;;
35223;SDS011;21367;51.930;8.112;2023-06-04T00:06:01;8.95;;;1.30;;
35223;SDS011;21367;51.930;8.112;2023-06-04T00:11:07;5.55;;;1.85;;
35223;SDS011;21367;51.930;8.112;2023-06-04T00:16:11;5.60;;;2.08;;
35223;SDS011;21367;51.930;8.112;2023-06-04T00:21:15;4.25;;;1.65;;
35223;SDS011;21367;51.930;8.112;2023-06-04T00:26:21;5.05;;;1.60;;
35223;SDS011;21367;51.930;8.112;2023-06-04T00:31:25;5.35;;;1.48;;
35223;SDS011;21367;51.930;8.112;2023-06-04T00:36:29;6.55;;;1.48;;
35223;SDS011;21367;51.930;8.112;2023-06-04T00:41:35;8.57;;;1.73;;
35223;SDS011;21367;51.930;8.112;2023-06-04T00:46:39;3.90;;;1.50;;
35223;SDS011;21367;51.930;8.112;2023-06-04T00:51:45;4.13;;;1.60;;
35223;SDS011;21367;51.930;8.112;2023-06-04T00:56:52;6.13;;;1.48;;
35223;SDS011;21367;51.930;8.112;2023-06-04T01:07:02;4.78;;;1.55;;
35223;SDS011;21367;51.930;8.112;2023-06-04T01:12:10;5.27;;;1.33;;
35223;SDS011;21367;51.930;8.112;2023-06-04T01:17:15;8.95;;;1.52;;
35223;SDS011;21367;51.930;8.112;2023-06-04T01:22:26;6.82;;;1.23;;
35223;SDS011;21367;51.930;8.112;2023-06-04T01:27:39;6.15;;;1.70;;
35223;SDS011;21367;51.930;8.112;2023-06-04T01:32:45;2.03;;;1.30;;
35223;SDS011;21367;51.930;8.112;2023-06-04T01:37:49;4.30;;;1.58;;
35223;SDS011;21367;51.930;8.112;2023-06-04T01:42:57;3.03;;;1.55;;
35223;SDS011;21367;51.930;8.112;2023-06-04T01:48:03;4.85;;;1.55;;
35223;SDS011;21367;51.930;8.112;2023-06-04T01:53:08;6.03;;;1.70;;
35223;SDS011;21367;51.930;8.112;2023-06-04T01:58:14;6.00;;;1.20;;
35223;SDS011;21367;51.930;8.112;2023-06-04T02:03:27;2.10;;;1.30;;
35223;SDS011;21367;51.930;8.112;2023-06-04T02:08:37;5.57;;;1.67;;
35223;SDS011;21367;51.930;8.112;2023-06-04T02:13:44;4.47;;;1.33;;
35223;SDS011;21367;51.930;8.112;2023-06-04T02:18:48;3.83;;;1.80;;
35223;SDS011;21367;51.930;8.112;2023-06-04T02:23:51;6.78;;;1.42;;
35223;SDS011;21367;51.930;8.112;2023-06-04T02:28:58;4.03;;;1.45;;
35223;SDS011;21367;51.930;8.112;2023-06-04T02:34:02;3.70;;;1.42;;
35223;SDS011;21367;51.930;8.112;2023-06-04T02:39:06;3.33;;;1.40;;
35223;SDS011;21367;51.930;8.112;2023-06-04T02:44:12;4.75;;;1.48;;
35223;SDS011;21367;51.930;8.112;2023-06-04T02:49:16;5.88;;;1.73;;
35223;SDS011;21367;51.930;8.112;2023-06-04T02:54:19;3.65;;;1.70;;
35223;SDS011;21367;51.930;8.112;2023-06-04T02:59:26;2.78;;;1.45;;
35223;SDS011;21367;51.930;8.112;2023-06-04T03:04:30;3.08;;;1.30;;
35223;SDS011;21367;51.930;8.112;2023-06-04T03:09:35;3.47;;;1.50;;
35223;SDS011;21367;51.930;8.112;2023-06-04T03:14:41;5.80;;;1.60;;
35223;SDS011;21367;51.930;8.112;2023-06-04T03:24:49;7.78;;;1.35;;
35223;SDS011;21367;51.930;8.112;2023-06-04T03:29:55;3.08;;;1.40;;
35223;SDS011;21367;51.930;8.112;2023-06-04T03:34:59;5.05;;;1.60;;
35223;SDS011;21367;51.930;8.112;2023-06-04T03:40:04;7.32;;;2.17;;
35223;SDS011;21367;51.930;8.112;2023-06-04T03:45:15;3.80;;;1.70;;
35223;SDS011;21367;51.930;8.112;2023-06-04T03:50:19;2.38;;;1.42;;
35223;SDS011;21367;51.930;8.112;2023-06-04T03:55:25;8.35;;;2.17;;
35223;SDS011;21367;51.930;8.112;2023-06-04T04:00:31;7.40;;;2.08;;
35223;SDS011;21367;51.930;8.112;2023-06-04T04:05:36;5.20;;;1.90;;
35223;SDS011;21367;51.930;8.112;2023-06-04T04:10:40;12.35;;;3.50;;
35223;SDS011;21367;51.930;8.112;2023-06-04T04:15:46;5.53;;;1.90;;
35223;SDS011;21367;51.930;8.112;2023-06-04T04:20:53;6.45;;;2.20;;
35223;SDS011;21367;51.930;8.112;2023-06-04T04:25:57;5.40;;;2.38;;
35223;SDS011;21367;51.930;8.112;2023-06-04T04:31:04;14.32;;;2.58;;
35223;SDS011;21367;51.930;8.112;2023-06-04T04:36:10;8.82;;;2.45;;
35223;SDS011;21367;51.930;8.112;2023-06-04T04:41:20;8.82;;;2.60;;
35223;SDS011;21367;51.930;8.112;2023-06-04T04:46:29;9.98;;;2.78;;
35223;SDS011;21367;51.930;8.112;2023-06-04T04:51:33;6.18;;;2.45;;
35223;SDS011;21367;51.930;8.112;2023-06-04T04:56:38;6.47;;;2.35;;
35223;SDS011;21367;51.930;8.112;2023-06-04T05:01:44;7.53;;;2.42;;
35223;SDS011;21367;51.930;8.112;2023-06-04T05:06:48;11.00;;;2.53;;
35223;SDS011;21367;51.930;8.112;2023-06-04T05:11:52;8.07;;;2.25;;
35223;SDS011;21367;51.930;8.112;2023-06-04T05:16:59;11.00;;;2.38;;
35223;SDS011;21367;51.930;8.112;2023-06-04T05:22:03;9.50;;;2.25;;
35223;SDS011;21367;51.930;8.112;2023-06-04T05:27:07;4.90;;;1.85;;
35223;SDS011;21367;51.930;8.112;2023-06-04T05:32:14;3.60;;;1.73;;
35223;SDS011;21367;51.930;8.112;2023-06-04T05:37:18;1.98;;;1.40;;
35223;SDS011;21367;51.930;8.112;2023-06-04T05:42:24;6.20;;;1.60;;
35223;SDS011;21367;51.930;8.112;2023-06-04T05:47:31;4.88;;;2.20;;
35223;SDS011;21367;51.930;8.112;2023-06-04T05:57:41;6.95;;;2.20;;
35223;SDS011;21367;51.930;8.112;2023-06-04T06:02:48;9.77;;;1.60;;
35223;SDS011;21367;51.930;8.112;2023-06-04T06:08:08;5.78;;;1.70;;
35223;SDS011;21367;51.930;8.112;2023-06-04T06:13:12;2.28;;;1.50;;
35223;SDS011;21367;51.930;8.112;2023-06-04T06:18:19;3.33;;;1.50;;
35223;SDS011;21367;51.930;8.112;2023-06-04T06:23:23;5.93;;;2.38;;
35223;SDS011;21367;51.930;8.112;2023-06-04T06:28:26;3.55;;;1.80;;
35223;SDS011;21367;51.930;8.112;2023-06-04T06:33:33;2.70;;;1.27;;
35223;SDS011;21367;51.930;8.112;2023-06-04T06:38:41;3.60;;;1.25;;
35223;SDS011;21367;51.930;8.112;2023-06-04T06:43:45;3.45;;;1.13;;
35223;SDS011;21367;51.930;8.112;2023-06-04T06:48:51;4.85;;;1.30;;
35223;SDS011;21367;51.930;8.112;2023-06-04T06:58:58;5.35;;;1.83;;
35223;SDS011;21367;51.930;8.112;2023-06-04T07:04:05;5.40;;;2.08;;
35223;SDS011;21367;51.930;8.112;2023-06-04T07:09:08;3.72;;;1.70;;
35223;SDS011;21367;51.930;8.112;2023-06-04T07:14:14;8.75;;;1.83;;
35223;SDS011;21367;51.930;8.112;2023-06-04T07:19:20;8.43;;;1.90;;
35223;SDS011;21367;51.930;8.112;2023-06-04T07:24:24;8.02;;;1.30;;
35223;SDS011;21367;51.930;8.112;2023-06-04T07:29:27;4.32;;;1.50;;
35223;SDS011;21367;51.930;8.112;2023-06-04T07:34:34;9.35;;;1.85;;
35223;SDS011;21367;51.930;8.112;2023-06-04T07:44:41;7.53;;;1.85;;
35223;SDS011;21367;51.930;8.112;2023-06-04T07:49:47;5.50;;;1.98;;
35223;SDS011;21367;51.930;8.112;2023-06-04T07:54:51;8.32;;;2.13;;
35223;SDS011;21367;51.930;8.112;2023-06-04T07:59:56;8.07;;;1.90;;
35223;SDS011;21367;51.930;8.112;2023-06-04T08:05:03;4.70;;;2.10;;
35223;SDS011;21367;51.930;8.112;2023-06-04T08:10:07;5.47;;;2.40;;
35223;SDS011;21367;51.930;8.112;2023-06-04T08:15:12;5.32;;;2.38;;
35223;SDS011;21367;51.930;8.112;2023-06-04T08:20:18;6.00;;;2.17;;
35223;SDS011;21367;51.930;8.112;2023-06-04T08:25:22;3.95;;;2.13;;
35223;SDS011;21367;51.930;8.112;2023-06-04T08:30:26;5.70;;;2.00;;
35223;SDS011;21367;51.930;8.112;2023-06-04T08:35:32;7.18;;;1.73;;
35223;SDS011;21367;51.930;8.112;2023-06-04T08:45:39;6.70;;;1.90;;
35223;SDS011;21367;51.930;8.112;2023-06-04T08:50:48;6.15;;;2.50;;
35223;SDS011;21367;51.930;8.112;2023-06-04T08:55:54;4.25;;;1.75;;
35223;SDS011;21367;51.930;8.112;2023-06-04T09:00:58;2.63;;;1.60;;
35223;SDS011;21367;51.930;8.112;2023-06-04T09:06:06;22.27;;;2.85;;
35223;SDS011;21367;51.930;8.112;2023-06-04T09:11:11;7.47;;;1.55;;
35223;SDS011;21367;51.930;8.112;2023-06-04T09:16:18;8.30;;;1.65;;
35223;SDS011;21367;51.930;8.112;2023-06-04T09:21:24;4.75;;;1.98;;
35223;SDS011;21367;51.930;8.112;2023-06-04T09:26:28;11.07;;;1.95;;
35223;SDS011;21367;51.930;8.112;2023-06-04T09:31:31;40.47;;;2.67;;
35223;SDS011;21367;51.930;8.112;2023-06-04T09:36:40;14.88;;;2.33;;
35223;SDS011;21367;51.930;8.112;2023-06-04T09:41:43;7.90;;;1.60;;
35223;SDS011;21367;51.930;8.112;2023-06-04T09:46:52;7.80;;;1.55;;
35223;SDS011;21367;51.930;8.112;2023-06-04T09:52:00;7.78;;;2.30;;
35223;SDS011;21367;51.930;8.112;2023-06-04T09:57:04;8.65;;;1.92;;
35223;SDS011;21367;51.930;8.112;2023-06-04T10:02:17;9.80;;;2.47;;
35223;SDS011;21367;51.930;8.112;2023-06-04T10:07:25;6.18;;;1.40;;
35223;SDS011;21367;51.930;8.112;2023-06-04T10:12:30;5.53;;;1.48;;
35223;SDS011;21367;51.930;8.112;2023-06-04T10:17:38;5.40;;;1.60;;
35223;SDS011;21367;51.930;8.112;2023-06-04T10:22:45;7.93;;;1.65;;
35223;SDS011;21367;51.930;8.112;2023-06-04T10:27:51;3.83;;;1.30;;
35223;SDS011;21367;51.930;8.112;2023-06-04T10:32:56;5.33;;;1.67;;
35223;SDS011;21367;51.930;8.112;2023-06-04T10:38:09;10.70;;;1.85;;
35223;SDS011;21367;51.930;8.112;2023-06-04T10:43:16;7.90;;;1.60;;
35223;SDS011;21367;51.930;8.112;2023-06-04T10:48:21;6.43;;;1.63;;
35223;SDS011;21367;51.930;8.112;2023-06-04T10:53:35;4.43;;;1.67;;
35223;SDS011;21367;51.930;8.112;2023-06-04T10:58:40;3.63;;;1.73;;
35223;SDS011;21367;51.930;8.112;2023-06-04T11:03:43;3.15;;;1.60;;
35223;SDS011;21367;51.930;8.112;2023-06-04T11:09:00;3.22;;;1.75;;
35223;SDS011;21367;51.930;8.112;2023-06-04T11:14:08;5.75;;;1.65;;
35223;SDS011;21367;51.930;8.112;2023-06-04T11:19:13;9.18;;;1.58;;
35223;SDS011;21367;51.930;8.112;2023-06-04T11:24:19;3.97;;;1.73;;
35223;SDS011;21367;51.930;8.112;2023-06-04T11:29:23;5.45;;;1.40;;
35223;SDS011;21367;51.930;8.112;2023-06-04T11:34:27;3.28;;;1.30;;
35223;SDS011;21367;51.930;8.112;2023-06-04T11:39:40;7.28;;;1.77;;
35223;SDS011;21367;51.930;8.112;2023-06-04T11:44:45;5.82;;;1.80;;
35223;SDS011;21367;51.930;8.112;2023-06-04T11:49:53;3.53;;;1.80;;
35223;SDS011;21367;51.930;8.112;2023-06-04T11:55:00;6.03;;;1.50;;
35223;SDS011;21367;51.930;8.112;2023-06-04T12:00:04;5.97;;;1.50;;
35223;SDS011;21367;51.930;8.112;2023-06-04T12:05:13;4.25;;;1.50;;
35223;SDS011;21367;51.930;8.112;2023-06-04T12:10:21;7.38;;;1.58;;
35223;SDS011;21367;51.930;8.112;2023-06-04T12:15:26;5.13;;;2.00;;
35223;SDS011;21367;51.930;8.112;2023-06-04T12:20:32;4.97;;;1.70;;
35223;SDS011;21367;51.930;8.112;2023-06-04T12:25:39;5.53;;;1.63;;
35223;SDS011;21367;51.930;8.112;2023-06-04T12:30:43;6.95;;;1.38;;
35223;SDS011;21367;51.930;8.112;2023-06-04T12:35:47;6.40;;;1.48;;
35223;SDS011;21367;51.930;8.112;2023-06-04T12:40:53;6.82;;;1.40;;
35223;SDS011;21367;51.930;8.112;2023-06-04T12:45:57;5.20;;;1.25;;
35223;SDS011;21367;51.930;8.112;2023-06-04T12:51:01;5.30;;;1.58;;
35223;SDS011;21367;51.930;8.112;2023-06-04T12:56:08;6.80;;;1.77;;
35223;SDS011;21367;51.930;8.112;2023-06-04T13:01:12;3.22;;;1.48;;
35223;SDS011;21367;51.930;8.112;2023-06-04T13:06:16;3.95;;;1.50;;
35223;SDS011;21367;51.930;8.112;2023-06-04T13:11:22;2.58;;;1.27;;
35223;SDS011;21367;51.930;8.112;2023-06-04T13:16:26;5.13;;;1.33;;
35223;SDS011;21367;51.930;8.112;2023-06-04T13:21:29;6.20;;;1.40;;
35223;SDS011;21367;51.930;8.112;2023-06-04T13:26:36;6.30;;;1.60;;
35223;SDS011;21367;51.930;8.112;2023-06-04T13:31:39;6.50;;;1.48;;
35223;SDS011;21367;51.930;8.112;2023-06-04T13:36:43;4.32;;;1.48;;
35223;SDS011;21367;51.930;8.112;2023-06-04T13:41:49;2.45;;;1.35;;
35223;SDS011;21367;51.930;8.112;2023-06-04T13:46:53;1.85;;;1.30;;
35223;SDS011;21367;51.930;8.112;2023-06-04T13:51:57;2.55;;;1.20;;
35223;SDS011;21367;51.930;8.112;2023-06-04T13:57:04;6.63;;;1.40;;
35223;SDS011;21367;51.930;8.112;2023-06-04T14:02:11;3.90;;;1.05;;
35223;SDS011;21367;51.930;8.112;2023-06-04T14:07:15;4.93;;;1.20;;
35223;SDS011;21367;51.930;8.112;2023-06-04T14:12:21;1.75;;;1.05;;
35223;SDS011;21367;51.930;8.112;2023-06-04T14:17:25;3.35;;;1.52;;
35223;SDS011;21367;51.930;8.112;2023-06-04T14:22:29;6.35;;;1.50;;
35223;SDS011;21367;51.930;8.112;2023-06-04T14:27:35;7.50;;;1.42;;
35223;SDS011;21367;51.930;8.112;2023-06-04T14:32:39;4.13;;;1.33;;
35223;SDS011;21367;51.930;8.112;2023-06-04T14:37:43;5.97;;;1.30;;
35223;SDS011;21367;51.930;8.112;2023-06-04T14:42:49;4.75;;;1.63;;
35223;SDS011;21367;51.930;8.112;2023-06-04T14:47:53;3.10;;;1.20;;
35223;SDS011;21367;51.930;8.112;2023-06-04T14:52:57;6.20;;;1.17;;
35223;SDS011;21367;51.930;8.112;2023-06-04T14:58:03;2.40;;;1.30;;
35223;SDS011;21367;51.930;8.112;2023-06-04T15:03:07;4.88;;;1.00;;
35223;SDS011;21367;51.930;8.112;2023-06-04T15:08:11;2.28;;;1.10;;
35223;SDS011;21367;51.930;8.112;2023-06-04T15:13:17;5.38;;;1.38;;
35223;SDS011;21367;51.930;8.112;2023-06-04T15:18:21;2.17;;;1.30;;
35223;SDS011;21367;51.930;8.112;2023-06-04T15:23:24;2.53;;;1.00;;
35223;SDS011;21367;51.930;8.112;2023-06-04T15:28:31;2.75;;;1.27;;
35223;SDS011;21367;51.930;8.112;2023-06-04T15:33:34;3.30;;;1.13;;
35223;SDS011;21367;51.930;8.112;2023-06-04T15:38:38;1.85;;;1.08;;
35223;SDS011;21367;51.930;8.112;2023-06-04T15:43:44;4.05;;;1.70;;
35223;SDS011;21367;51.930;8.112;2023-06-04T15:48:48;6.32;;;1.30;;
35223;SDS011;21367;51.930;8.112;2023-06-04T15:53:52;2.00;;;1.20;;
35223;SDS011;21367;51.930;8.112;2023-06-04T15:58:58;4.20;;;1.17;;
35223;SDS011;21367;51.930;8.112;2023-06-04T16:04:01;9.65;;;1.40;;
35223;SDS011;21367;51.930;8.112;2023-06-04T16:09:05;6.10;;;1.40;;
35223;SDS011;21367;51.930;8.112;2023-06-04T16:14:12;4.07;;;0.90;;
35223;SDS011;21367;51.930;8.112;2023-06-04T16:19:19;3.42;;;1.45;;
35223;SDS011;21367;51.930;8.112;2023-06-04T16:24:23;3.22;;;1.17;;
35223;SDS011;21367;51.930;8.112;2023-06-04T16:29:29;3.90;;;1.38;;
35223;SDS011;21367;51.930;8.112;2023-06-04T16:34:33;3.72;;;1.30;;
35223;SDS011;21367;51.930;8.112;2023-06-04T16:39:36;5.10;;;1.30;;
35223;SDS011;21367;51.930;8.112;2023-06-04T16:44:43;3.60;;;1.15;;
35223;SDS011;21367;51.930;8.112;2023-06-04T16:49:47;3.70;;;1.20;;
35223;SDS011;21367;51.930;8.112;2023-06-04T16:54:50;1.52;;;1.10;;
35223;SDS011;21367;51.930;8.112;2023-06-04T16:59:57;2.27;;;1.50;;
35223;SDS011;21367;51.930;8.112;2023-06-04T17:05:01;4.63;;;1.10;;
35223;SDS011;21367;51.930;8.112;2023-06-04T17:10:05;5.05;;;1.55;;
35223;SDS011;21367;51.930;8.112;2023-06-04T17:15:12;5.07;;;1.20;;
35223;SDS011;21367;51.930;8.112;2023-06-04T17:20:16;2.60;;;1.25;;
35223;SDS011;21367;51.930;8.112;2023-06-04T17:25:19;10.50;;;1.42;;
35223;SDS011;21367;51.930;8.112;2023-06-04T17:30:26;7.57;;;1.30;;
35223;SDS011;21367;51.930;8.112;2023-06-04T17:35:30;3.92;;;1.30;;
35223;SDS011;21367;51.930;8.112;2023-06-04T17:40:33;3.28;;;1.25;;
35223;SDS011;21367;51.930;8.112;2023-06-04T17:45:40;11.80;;;1.33;;
35223;SDS011;21367;51.930;8.112;2023-06-04T17:50:44;2.47;;;1.30;;
35223;SDS011;21367;51.930;8.112;2023-06-04T17:55:47;14.32;;;1.52;;
35223;SDS011;21367;51.930;8.112;2023-06-04T18:00:54;7.43;;;1.63;;
35223;SDS011;21367;51.930;8.112;2023-06-04T18:05:57;3.72;;;1.50;;
35223;SDS011;21367;51.930;8.112;2023-06-04T18:11:01;6.45;;;1.45;;
35223;SDS011;21367;51.930;8.112;2023-06-04T18:16:08;5.85;;;1.50;;
35223;SDS011;21367;51.930;8.112;2023-06-04T18:21:15;5.03;;;1.20;;
35223;SDS011;21367;51.930;8.112;2023-06-04T18:26:19;7.97;;;1.48;;
35223;SDS011;21367;51.930;8.112;2023-06-04T18:31:25;3.72;;;1.05;;
35223;SDS011;21367;51.930;8.112;2023-06-04T18:36:29;8.82;;;1.40;;
35223;SDS011;21367;51.930;8.112;2023-06-04T18:41:33;12.82;;;1.40;;
35223;SDS011;21367;51.930;8.112;2023-06-04T18:46:40;5.32;;;1.10;;
35223;SDS011;21367;51.930;8.112;2023-06-04T18:51:43;2.28;;;1.10;;
35223;SDS011;21367;51.930;8.112;2023-06-04T18:56:47;4.80;;;1.50;;
35223;SDS011;21367;51.930;8.112;2023-06-04T19:01:54;3.95;;;1.45;;
35223;SDS011;21367;51.930;8.112;2023-06-04T19:06:58;2.83;;;1.52;;
35223;SDS011;21367;51.930;8.112;2023-06-04T19:12:01;2.78;;;1.17;;
35223;SDS011;21367;51.930;8.112;2023-06-04T19:17:08;2.35;;;1.48;;
35223;SDS011;21367;51.930;8.112;2023-06-04T19:22:19;4.07;;;1.40;;
35223;SDS011;21367;51.930;8.112;2023-06-04T19:27:22;5.15;;;1.38;;
35223;SDS011;21367;51.930;8.112;2023-06-04T19:32:29;2.60;;;1.38;;
35223;SDS011;21367;51.930;8.112;2023-06-04T19:37:33;9.57;;;1.65;;
35223;SDS011;21367;51.930;8.112;2023-06-04T19:42:36;4.45;;;1.50;;
35223;SDS011;21367;51.930;8.112;2023-06-04T19:47:42;11.80;;;1.70;;
35223;SDS011;21367;51.930;8.112;2023-06-04T19:52:46;10.82;;;2.00;;
35223;SDS011;21367;51.930;8.112;2023-06-04T19:57:50;9.20;;;1.90;;
35223;SDS011;21367;51.930;8.112;2023-06-04T20:02:58;11.52;;;1.90;;
35223;SDS011;21367;51.930;8.112;2023-06-04T20:08:02;6.45;;;2.58;;
35223;SDS011;21367;51.930;8.112;2023-06-04T20:13:05;16.10;;;2.28;;
35223;SDS011;21367;51.930;8.112;2023-06-04T20:18:12;12.13;;;2.40;;
35223;SDS011;21367;51.930;8.112;2023-06-04T20:23:16;10.48;;;2.67;;
35223;SDS011;21367;51.930;8.112;2023-06-04T20:28:19;8.00;;;2.45;;
35223;SDS011;21367;51.930;8.112;2023-06-04T20:33:26;9.63;;;2.20;;
35223;SDS011;21367;51.930;8.112;2023-06-04T20:38:30;11.82;;;2.72;;
35223;SDS011;21367;51.930;8.112;2023-06-04T20:43:46;10.80;;;2.38;;
35223;SDS011;21367;51.930;8.112;2023-06-04T20:48:53;10.02;;;2.17;;
35223;SDS011;21367;51.930;8.112;2023-06-04T20:59:01;9.88;;;2.33;;
35223;SDS011;21367;51.930;8.112;2023-06-04T21:04:07;7.10;;;2.20;;
35223;SDS011;21367;51.930;8.112;2023-06-04T21:09:11;10.40;;;2.15;;
35223;SDS011;21367;51.930;8.112;2023-06-04T21:14:15;13.80;;;2.35;;
35223;SDS011;21367;51.930;8.112;2023-06-04T21:19:21;9.23;;;2.13;;
35223;SDS011;21367;51.930;8.112;2023-06-04T21:24:24;10.43;;;2.05;;
35223;SDS011;21367;51.930;8.112;2023-06-04T21:29:28;9.95;;;2.25;;
35223;SDS011;21367;51.930;8.112;2023-06-04T21:34:34;11.65;;;2.60;;
35223;SDS011;21367;51.930;8.112;2023-06-04T21:39:38;9.23;;;2.78;;
35223;SDS011;21367;51.930;8.112;2023-06-04T21:44:42;10.63;;;2.33;;
35223;SDS011;21367;51.930;8.112;2023-06-04T21:49:49;6.90;;;2.03;;
35223;SDS011;21367;51.930;8.112;2023-06-04T21:54:53;5.95;;;2.08;;
35223;SDS011;21367;51.930;8.112;2023-06-04T21:59:57;9.43;;;2.28;;
35223;SDS011;21367;51.930;8.112;2023-06-04T22:05:03;6.15;;;2.35;;
35223;SDS011;21367;51.930;8.112;2023-06-04T22:10:07;11.05;;;2.53;;
35223;SDS011;21367;51.930;8.112;2023-06-04T22:15:12;8.45;;;2.38;;
35223;SDS011;21367;51.930;8.112;2023-06-04T22:20:19;9.75;;;2.33;;
35223;SDS011;21367;51.930;8.112;2023-06-04T22:30:26;5.68;;;1.88;;
35223;SDS011;21367;51.930;8.112;2023-06-04T22:35:32;7.53;;;2.28;;
35223;SDS011;21367;51.930;8.112;2023-06-04T22:40:35;8.82;;;2.60;;
35223;SDS011;21367;51.930;8.112;2023-06-04T22:45:39;8.95;;;2.20;;
35223;SDS011;21367;51.930;8.112;2023-06-04T22:50:46;9.45;;;2.22;;
35223;SDS011;21367;51.930;8.112;2023-06-04T22:55:51;12.55;;;2.65;;
35223;SDS011;21367;51.930;8.112;2023-06-04T23:00:55;14.18;;;2.60;;
35223;SDS011;21367;51.930;8.112;2023-06-04T23:06:02;9.48;;;2.45;;
35223;SDS011;21367;51.930;8.112;2023-06-04T23:11:06;12.98;;;2.35;;
35223;SDS011;21367;51.930;8.112;2023-06-04T23:16:10;7.88;;;2.75;;
35223;SDS011;21367;51.930;8.112;2023-06-04T23:21:16;6.28;;;2.30;;
35223;SDS011;21367;51.930;8.112;2023-06-04T23:26:20;6.40;;;2.67;;
35223;SDS011;21367;51.930;8.112;2023-06-04T23:31:24;10.27;;;2.92;;
35223;SDS011;21367;51.930;8.112;2023-06-04T23:36:30;11.43;;;3.25;;
35223;SDS011;21367;51.930;8.112;2023-06-04T23:41:34;6.07;;;2.38;;
35223;SDS011;21367;51.930;8.112;2023-06-04T23:46:38;9.25;;;2.33;;
35223;SDS011;21367;51.930;8.112;2023-06-04T23:51:44;5.65;;;2.45;;
